Time;durP1;ratioP1;P1;durP2;ratioP2;P2;SDS_P1;SDS_P2;PMS_P1;PMS_P2;Temp;Humidity;BMP_temperature;BMP_pressure;BME280_temperature;BME280_humidity;BME280_pressure;Samples;Min_cycle;Max_cycle;Signal;HPM_P1;HPM_P2
2022/03/19 00:01:46;;;;;;;63.53;44.27;;;;;;;4.84;100.00;98799.91;5112950;28;20387;-61
2022/03/19 00:04:12;;;;;;;64.35;44.72;;;;;;;4.83;100.00;98795.66;5113910;28;20466;-61
2022/03/19 00:06:39;;;;;;;64.23;44.03;;;;;;;4.82;100.00;98802.63;5112868;28;20725;-61
2022/03/19 00:09:06;;;;;;;64.17;44.37;;;;;;;4.82;100.00;98799.22;5113446;28;20977;-61
2022/03/19 00:11:32;;;;;;;65.68;45.05;;;;;;;4.83;100.00;98809.47;5113652;28;20477;-62
2022/03/19 00:13:57;;;;;;;67.07;44.30;;;;;;;4.86;99.47;98800.56;5095106;28;20511;-61
2022/03/19 00:16:24;;;;;;;65.85;45.50;;;;;;;4.80;100.00;98801.13;5113706;28;20372;-61
2022/03/19 00:18:49;;;;;;;61.55;43.28;;;;;;;4.87;99.69;98804.81;5113819;28;20376;-61
2022/03/19 00:21:15;;;;;;;67.83;44.93;;;;;;;4.76;99.68;98808.38;5112529;28;20380;-61
2022/03/19 00:23:41;;;;;;;64.60;43.10;;;;;;;4.77;100.00;98801.41;5113474;28;20379;-61
2022/03/19 00:26:07;;;;;;;63.75;44.47;;;;;;;4.71;100.00;98802.78;5113392;28;20372;-61
2022/03/19 00:28:33;;;;;;;63.42;42.83;;;;;;;4.60;100.00;98802.94;5113615;28;20418;-61
2022/03/19 00:30:59;;;;;;;64.72;44.80;;;;;;;4.66;100.00;98802.41;5112984;28;20400;-61
2022/03/19 00:33:25;;;;;;;65.60;43.30;;;;;;;4.70;100.00;98798.56;5113405;28;20459;-61
2022/03/19 00:35:50;;;;;;;63.03;44.00;;;;;;;4.66;100.00;98798.97;5113216;28;20734;-61
2022/03/19 00:38:16;;;;;;;63.57;43.87;;;;;;;4.58;100.00;98800.47;5113339;28;20380;-62
2022/03/19 00:40:43;;;;;;;59.60;42.17;;;;;;;4.49;100.00;98796.13;5112988;28;20408;-61
2022/03/19 00:43:09;;;;;;;59.40;41.80;;;;;;;4.54;100.00;98803.50;5112885;28;20376;-61
2022/03/19 00:45:34;;;;;;;63.42;42.53;;;;;;;4.45;100.00;98799.16;5112741;28;20400;-61
2022/03/19 00:48:00;;;;;;;60.03;43.00;;;;;;;4.50;100.00;98800.38;5112865;28;20388;-61
2022/03/19 00:50:25;;;;;;;59.63;42.00;;;;;;;4.55;99.96;98797.34;5112349;28;20809;-61
2022/03/19 00:52:51;;;;;;;58.65;41.88;;;;;;;4.47;100.00;98792.03;5112381;28;20434;-61
2022/03/19 00:55:16;;;;;;;58.27;41.53;;;;;;;4.46;99.62;98785.19;5112490;28;20406;-61
2022/03/19 00:57:44;;;;;;;60.87;41.97;;;;;;;4.46;99.66;98791.19;5112622;28;20383;-61
2022/03/19 01:00:11;;;;;;;57.25;41.45;;;;;;;4.47;99.11;98786.84;5112049;28;20376;-62
2022/03/19 01:02:38;;;;;;;59.93;42.83;;;;;;;4.49;98.76;98774.53;5112529;28;20410;-61
2022/03/19 01:05:04;;;;;;;58.85;41.85;;;;;;;4.50;98.35;98782.19;5112626;28;20531;-61
2022/03/19 01:07:30;;;;;;;60.13;41.25;;;;;;;4.47;98.98;98784.22;5112668;28;20384;-62
2022/03/19 01:09:55;;;;;;;59.28;40.60;;;;;;;4.43;98.00;98780.28;5112132;28;20404;-61
2022/03/19 01:12:20;;;;;;;58.67;40.60;;;;;;;4.47;97.99;98779.88;5112279;28;20773;-61
2022/03/19 01:14:46;;;;;;;59.43;40.83;;;;;;;4.43;97.75;98773.31;5094023;28;21005;-62
2022/03/19 01:17:11;;;;;;;62.03;41.07;;;;;;;4.30;98.82;98777.97;5093775;28;20801;-61
2022/03/19 01:19:57;;;;;;;56.00;39.87;;;;;;;4.41;97.45;98767.44;5112433;28;20475;-62
2022/03/19 01:22:23;;;;;;;54.75;39.65;;;;;;;4.38;97.71;98772.91;5111968;28;20463;-61
2022/03/19 01:24:48;;;;;;;53.70;39.05;;;;;;;4.45;97.09;98775.78;5112450;28;20580;-61
2022/03/19 01:27:14;;;;;;;55.45;39.00;;;;;;;4.43;96.83;98773.31;5112146;28;20457;-62
2022/03/19 01:29:39;;;;;;;56.33;40.27;;;;;;;4.41;97.26;98761.41;5111747;28;20778;-61
2022/03/19 01:32:05;;;;;;;55.73;39.40;;;;;;;4.37;97.14;98760.88;5112243;28;20414;-61
2022/03/19 01:34:30;;;;;;;56.60;38.75;;;;;;;4.33;96.77;98762.13;5094069;28;20392;-61
2022/03/19 01:36:56;;;;;;;55.92;38.92;;;;;;;4.33;96.62;98762.13;5094279;28;20376;-61
2022/03/19 01:39:21;;;;;;;59.67;39.77;;;;;;;4.31;97.10;98755.44;5111860;28;20396;-61
2022/03/19 01:41:47;;;;;;;53.88;39.42;;;;;;;4.31;96.96;98760.63;5112255;28;20424;-62
2022/03/19 01:44:22;;;;;;;54.20;38.95;;;;;;;4.31;96.34;98764.03;5112164;28;20411;-61
2022/03/19 01:46:57;;;;;;;52.58;39.10;;;;;;;4.34;96.49;98763.78;5112088;28;20447;-61
2022/03/19 01:49:23;;;;;;;56.00;39.58;;;;;;;4.39;96.08;98759.00;5111906;28;20399;-62
2022/03/19 01:51:48;;;;;;;57.40;39.63;;;;;;;4.37;95.38;98758.28;5112205;28;20718;-61
2022/03/19 01:54:15;;;;;;;53.00;37.70;;;;;;;4.33;95.86;98754.34;5111808;28;20380;-61
2022/03/19 01:56:42;;;;;;;53.08;38.33;;;;;;;4.35;95.39;98762.78;5111650;28;20411;-61
2022/03/19 01:59:08;;;;;;;58.97;39.28;;;;;;;4.44;94.66;98750.78;5111701;28;20395;-61
2022/03/19 02:01:33;;;;;;;53.17;38.43;;;;;;;4.32;95.36;98750.09;5112137;28;20391;-62
2022/03/19 02:04:00;;;;;;;55.30;38.13;;;;;;;4.32;95.13;98759.66;5112252;28;20717;-62
2022/03/19 02:06:26;;;;;;;53.20;37.97;;;;;;;4.33;94.57;98753.53;5111782;28;20483;-62
2022/03/19 02:08:53;;;;;;;54.22;38.17;;;;;;;4.26;95.62;98755.03;5111945;28;20380;-63
2022/03/19 02:11:18;;;;;;;53.55;38.78;;;;;;;4.33;94.75;98753.53;5111408;28;20412;-62
2022/03/19 02:13:44;;;;;;;53.17;37.92;;;;;;;4.28;94.33;98740.16;5093812;28;20438;-62
2022/03/19 02:16:09;;;;;;;53.00;37.43;;;;;;;4.22;94.37;98749.31;5111763;28;20475;-62
2022/03/19 02:18:34;;;;;;;57.30;38.23;;;;;;;4.24;94.08;98746.56;5112160;28;20373;-62
2022/03/19 02:21:01;;;;;;;52.77;38.33;;;;;;;4.28;94.08;98753.13;5111247;28;20376;-62
2022/03/19 02:26:12;;;;;;;51.70;37.05;;;;;;;4.17;94.24;98741.94;5111698;28;20371;-62
2022/03/19 02:28:37;;;;;;;53.20;37.00;;;;;;;4.20;94.19;98753.81;5112318;28;20903;-62
2022/03/19 02:31:03;;;;;;;52.90;38.23;;;;;;;4.25;94.09;98743.00;5115261;28;20399;-62
2022/03/19 02:33:28;;;;;;;52.30;37.10;;;;;;;4.18;93.79;98742.72;5116039;28;20425;-62
2022/03/19 02:35:53;;;;;;;47.83;36.07;;;;;;;4.21;93.53;98739.06;5115591;28;20868;-62
2022/03/19 02:38:19;;;;;;;52.60;36.73;;;;;;;4.15;93.30;98737.84;5097019;28;20392;-62
2022/03/19 02:40:45;;;;;;;49.03;35.90;;;;;;;4.15;93.18;98728.28;5115611;28;20407;-62
2022/03/19 02:43:10;;;;;;;52.90;36.30;;;;;;;4.16;92.83;98737.69;5115427;28;20387;-61
2022/03/19 02:45:36;;;;;;;50.30;36.20;;;;;;;4.18;92.87;98730.56;5115272;28;20392;-62
2022/03/19 02:48:01;;;;;;;54.10;36.93;;;;;;;4.17;92.83;98731.56;5115062;28;20376;-62
2022/03/19 02:50:35;;;;;;;50.22;36.25;;;;;;;4.23;92.79;98731.97;5115099;28;20443;-63
2022/03/19 02:53:06;;;;;;;52.33;37.72;;;;;;;4.27;91.97;98726.34;5096382;28;20418;-62
2022/03/19 02:55:34;;;;;;;52.25;36.17;;;;;;;4.15;92.01;98730.88;5115141;28;20372;-62
2022/03/19 02:58:00;;;;;;;53.53;36.70;;;;;;;4.15;92.22;98737.84;5115414;28;20445;-62
2022/03/19 03:00:25;;;;;;;50.88;35.80;;;;;;;4.19;91.84;98737.41;5114927;28;20372;-62
2022/03/19 03:02:51;;;;;;;51.67;36.30;;;;;;;4.12;92.33;98732.94;5114915;28;20468;-62
2022/03/19 03:05:16;;;;;;;50.53;36.20;;;;;;;4.09;92.61;98739.19;5114512;28;20368;-62
2022/03/19 03:07:41;;;;;;;53.13;35.80;;;;;;;4.12;92.00;98735.53;5114904;28;20387;-62
2022/03/19 03:10:08;;;;;;;50.35;35.97;;;;;;;4.18;91.54;98725.38;5115351;28;20404;-62
2022/03/19 03:12:34;;;;;;;49.70;35.97;;;;;;;4.11;91.33;98739.88;5114792;28;20381;-62
2022/03/19 03:14:59;;;;;;;51.10;35.75;;;;;;;4.06;91.55;98733.47;5114573;28;20848;-62
2022/03/19 03:17:24;;;;;;;51.40;35.53;;;;;;;4.17;91.41;98734.16;5114640;28;20455;-64
2022/03/19 03:19:51;;;;;;;51.13;34.73;;;;;;;4.11;90.74;98726.91;5114510;28;20856;-62
2022/03/19 03:22:16;;;;;;;48.47;34.92;;;;;;;4.19;90.77;98728.81;5114534;28;20426;-62
2022/03/19 03:24:42;;;;;;;51.22;35.95;;;;;;;4.14;90.99;98734.41;5114325;28;20377;-62
2022/03/19 03:27:07;;;;;;;53.60;35.27;;;;;;;4.23;90.39;98729.38;5096067;28;20387;-62
2022/03/19 03:29:33;;;;;;;51.07;35.97;;;;;;;4.13;90.95;98730.19;5114162;28;20399;-62
2022/03/19 03:31:58;;;;;;;46.37;35.10;;;;;;;4.06;90.29;98736.91;5114578;28;20372;-62
2022/03/19 03:34:23;;;;;;;51.90;34.87;;;;;;;4.05;90.79;98737.84;5114457;28;20373;-62
2022/03/19 03:36:49;;;;;;;51.85;34.55;;;;;;;4.08;90.92;98728.94;5114492;28;20400;-62
2022/03/19 03:39:14;;;;;;;49.17;35.00;;;;;;;4.03;91.17;98720.75;5114208;28;20837;-63
2022/03/19 03:41:39;;;;;;;52.63;35.30;;;;;;;4.06;90.89;98725.69;5114030;28;20401;-62
2022/03/19 03:44:05;;;;;;;51.23;35.20;;;;;;;3.95;90.88;98731.84;5107354;28;20877;-62
2022/03/19 03:46:31;;;;;;;49.97;35.70;;;;;;;3.93;91.19;98722.53;5101766;28;20384;-62
2022/03/19 03:48:56;;;;;;;48.30;35.50;;;;;;;4.01;90.95;98731.25;5104409;28;20460;-62
2022/03/19 03:51:21;;;;;;;49.95;35.00;;;;;;;3.96;90.55;98723.06;5102220;28;20409;-61
2022/03/19 03:53:47;;;;;;;48.87;34.53;;;;;;;3.99;90.21;98719.41;5103964;28;20376;-61
2022/03/19 03:56:13;;;;;;;49.53;34.83;;;;;;;3.91;91.11;98716.66;5103664;28;20473;-64
2022/03/19 03:58:40;;;;;;;50.63;35.50;;;;;;;3.88;90.49;98717.78;5084122;28;20930;-62
2022/03/19 04:01:07;;;;;;;48.50;34.42;;;;;;;3.86;90.87;98716.25;5104094;28;20465;-62
2022/03/19 04:03:32;;;;;;;51.60;35.77;;;;;;;3.91;90.82;98714.91;5103615;28;20574;-61
2022/03/19 04:05:57;;;;;;;49.73;35.00;;;;;;;3.77;91.07;98707.53;5102095;28;20820;-62
2022/03/19 04:08:23;;;;;;;50.10;35.63;;;;;;;3.80;90.88;98712.44;5104368;28;20388;-62
2022/03/19 04:10:48;;;;;;;50.87;35.20;;;;;;;3.77;90.92;98712.72;5103097;28;20413;-61
2022/03/19 04:13:14;;;;;;;51.53;35.33;;;;;;;3.85;90.33;98699.06;5084549;28;20569;-61
2022/03/19 04:15:39;;;;;;;49.50;34.53;;;;;;;3.71;91.23;98708.06;5104088;28;20368;-62
2022/03/19 04:18:05;;;;;;;49.83;35.08;;;;;;;3.78;90.60;98716.97;5102258;28;20839;-62
2022/03/19 04:20:30;;;;;;;51.43;35.17;;;;;;;3.83;90.24;98698.41;5084397;28;20377;-62
2022/03/19 04:22:56;;;;;;;53.72;35.08;;;;;;;3.78;89.87;98708.34;5103715;28;20370;-61
2022/03/19 04:25:23;;;;;;;50.42;33.72;;;;;;;3.71;90.82;98703.72;5083331;28;20380;-60
2022/03/19 04:27:51;;;;;;;46.90;33.70;;;;;;;3.76;89.83;98703.31;5102908;28;20903;-61
2022/03/19 04:30:17;;;;;;;46.40;33.88;;;;;;;3.82;89.50;98694.97;5103361;28;20485;-61
2022/03/19 04:32:55;;;;;;;45.88;34.22;;;;;;;3.73;89.63;98695.81;5101709;28;20366;-62
2022/03/19 04:38:10;;;;;;;49.33;34.50;;;;;;;3.83;89.93;98698.41;5113244;28;20387;-62
2022/03/19 04:40:36;;;;;;;49.35;34.88;;;;;;;3.85;89.48;98699.06;5113178;28;20451;-61
2022/03/19 04:43:03;;;;;;;48.13;34.25;;;;;;;3.75;89.77;98701.66;5113271;28;20384;-61
2022/03/19 04:45:28;;;;;;;49.92;33.90;;;;;;;3.71;88.91;98701.13;5094945;28;20372;-61
2022/03/19 04:47:54;;;;;;;52.93;35.17;;;;;;;3.60;89.31;98688.28;5112987;28;20847;-62
2022/03/19 04:52:58;;;;;;;46.75;33.40;;;;;;;3.53;90.22;98697.56;5532606;22;22053;-63
2022/03/19 04:55:26;;;;;;;47.95;32.92;;;;;;;3.60;89.59;98695.25;5090540;28;20485;-62
2022/03/19 04:57:51;;;;;;;49.10;34.40;;;;;;;3.67;89.40;98697.16;5092731;28;20434;-62
2022/03/19 05:00:17;;;;;;;46.90;33.13;;;;;;;3.46;89.44;98695.63;5091810;28;20410;-63
2022/03/19 05:02:44;;;;;;;52.47;34.65;;;;;;;3.58;89.31;98699.72;5074270;28;20451;-62
2022/03/19 05:05:10;;;;;;;47.08;33.35;;;;;;;3.62;88.36;98696.72;5092496;28;20403;-62
2022/03/19 05:07:37;;;;;;;45.03;32.58;;;;;;;3.53;88.38;98692.38;5092083;28;20386;-63
2022/03/19 05:12:48;;;;;;;46.15;32.55;;;;;;;3.46;89.07;98690.44;5092420;28;20742;-62
2022/03/19 05:15:15;;;;;;;47.10;33.23;;;;;;;3.50;87.78;98691.84;5091880;28;20382;-62
2022/03/19 05:17:41;;;;;;;45.33;32.60;;;;;;;3.52;88.06;98688.13;5091899;28;20370;-62
2022/03/19 05:20:08;;;;;;;43.70;32.42;;;;;;;3.52;88.66;98689.91;5091629;28;20459;-63
2022/03/19 05:22:34;;;;;;;48.08;32.05;;;;;;;3.51;87.74;98680.50;5091903;28;20386;-63
2022/03/19 05:25:00;;;;;;;45.95;31.80;;;;;;;3.52;87.91;98688.13;5091978;28;20784;-62
2022/03/19 05:27:26;;;;;;;47.72;32.88;;;;;;;3.52;87.95;98682.94;5091691;28;20382;-63
2022/03/19 05:29:52;;;;;;;47.15;32.35;;;;;;;3.50;87.03;98684.06;5091616;28;20405;-62
2022/03/19 05:32:19;;;;;;;44.95;32.22;;;;;;;3.37;88.01;98681.72;5091881;28;20838;-62
2022/03/19 05:34:44;;;;;;;48.30;32.30;;;;;;;3.46;87.25;98675.72;5091695;28;20773;-62
2022/03/19 05:37:11;;;;;;;45.42;32.20;;;;;;;3.47;87.15;98674.75;5091469;28;20370;-63
2022/03/19 05:39:37;;;;;;;44.83;31.73;;;;;;;3.41;87.36;98684.84;5091844;28;20381;-62
2022/03/19 05:42:03;;;;;;;49.03;32.13;;;;;;;3.39;87.75;98679.00;5091618;28;20856;-62
2022/03/19 05:44:29;;;;;;;46.97;32.50;;;;;;;3.36;87.18;98677.47;5091954;28;20504;-62
2022/03/19 05:46:58;;;;;;;46.72;31.70;;;;;;;3.42;87.26;98681.31;5091850;28;20366;-62
2022/03/19 05:49:24;;;;;;;44.65;31.35;;;;;;;3.56;86.77;98678.34;5091561;28;20393;-62
2022/03/19 05:51:49;;;;;;;44.53;31.95;;;;;;;3.52;86.26;98675.16;5091617;28;20378;-63
2022/03/19 05:54:15;;;;;;;44.67;31.20;;;;;;;3.56;85.70;98676.56;5091137;28;20900;-63
2022/03/19 05:56:40;;;;;;;45.37;31.57;;;;;;;3.49;86.93;98674.63;5090999;28;20397;-62
2022/03/19 05:59:06;;;;;;;43.95;32.20;;;;;;;3.53;85.76;98670.81;5073616;28;20378;-62
2022/03/19 06:01:31;;;;;;;43.17;30.70;;;;;;;3.66;84.41;98671.38;5091738;28;20902;-62
2022/03/19 06:03:58;;;;;;;43.87;30.00;;;;;;;3.70;83.79;98673.53;5092912;28;20370;-63
2022/03/19 06:06:25;;;;;;;44.10;30.08;;;;;;;3.82;82.36;98671.63;5095458;28;20423;-63
2022/03/19 06:08:51;;;;;;;46.28;30.58;;;;;;;3.86;82.66;98674.75;5095274;28;20388;-62
2022/03/19 06:11:17;;;;;;;42.30;29.77;;;;;;;3.91;82.16;98673.41;5095513;28;20406;-62
2022/03/19 06:13:43;;;;;;;42.07;29.90;;;;;;;3.86;81.70;98664.38;5077478;28;20386;-62
2022/03/19 06:16:09;;;;;;;43.50;29.48;;;;;;;3.95;81.90;98672.19;5095236;28;20881;-62
2022/03/19 06:18:34;;;;;;;45.78;30.30;;;;;;;3.97;81.75;98674.63;5095140;28;20382;-62
2022/03/19 06:21:00;;;;;;;48.50;30.55;;;;;;;4.14;80.57;98671.31;5060268;28;20463;-62
2022/03/19 06:23:26;;;;;;;39.97;28.37;;;;;;;4.32;79.87;98674.84;5095319;28;20496;-62
2022/03/19 06:25:52;;;;;;;41.60;29.35;;;;;;;4.36;79.73;98668.41;5095330;28;20499;-62
2022/03/19 06:28:18;;;;;;;42.70;29.70;;;;;;;4.44;78.70;98665.94;5095155;28;20876;-62
2022/03/19 06:30:44;;;;;;;41.17;29.23;;;;;;;4.54;79.33;98661.50;5095201;28;20489;-62
2022/03/19 06:33:11;;;;;;;42.47;29.10;;;;;;;4.72;78.14;98671.16;5095262;28;20382;-63
2022/03/19 06:38:23;;;;;;;41.08;29.13;;;;;;;4.65;78.25;98667.50;5095187;28;20884;-62
2022/03/19 06:40:48;;;;;;;45.10;29.95;;;;;;;4.58;77.03;98668.06;5094756;28;20382;-63
2022/03/19 06:43:14;;;;;;;41.25;29.25;;;;;;;4.71;77.46;98670.34;5094975;28;20378;-62
2022/03/19 06:45:39;;;;;;;41.30;29.20;;;;;;;4.80;77.28;98664.28;5094913;28;20410;-63
2022/03/19 06:48:05;;;;;;;41.10;29.40;;;;;;;4.92;76.59;98665.72;5095038;28;20852;-63
2022/03/19 06:50:30;;;;;;;43.35;29.05;;;;;;;4.99;76.70;98665.97;5095132;28;20402;-63
2022/03/19 06:52:56;;;;;;;42.67;29.98;;;;;;;4.89;76.06;98658.22;5094871;28;20388;-63
2022/03/19 06:55:21;;;;;;;44.33;30.93;;;;;;;4.88;76.45;98666.16;5075830;28;20413;-64
2022/03/19 06:57:47;;;;;;;43.57;30.27;;;;;;;5.02;76.92;98673.47;5094695;28;20381;-63
2022/03/19 07:00:13;;;;;;;39.80;28.90;;;;;;;5.06;76.83;98674.81;5094516;28;20374;-64
2022/03/19 07:02:49;;;;;;;42.30;29.60;;;;;;;4.96;77.14;98680.06;5094314;28;20408;-64
2022/03/19 07:05:20;;;;;;;42.75;30.00;;;;;;;5.02;76.78;98676.06;5094251;28;20374;-63
2022/03/19 07:07:47;;;;;;;41.67;29.33;;;;;;;5.25;76.72;98664.31;5076003;28;20386;-63
2022/03/19 07:10:13;;;;;;;41.88;30.05;;;;;;;5.33;75.93;98672.19;5093998;28;20462;-63
2022/03/19 07:12:45;;;;;;;42.35;29.40;;;;;;;5.46;74.95;98669.25;5094510;28;20374;-63
2022/03/19 07:15:12;;;;;;;43.70;28.88;;;;;;;5.42;74.12;98667.88;5094078;28;20395;-63
2022/03/19 07:17:38;;;;;;;41.50;29.42;;;;;;;5.34;73.87;98666.03;5094666;28;20378;-63
2022/03/19 07:20:04;;;;;;;41.13;27.77;;;;;;;5.26;73.71;98665.13;5094466;28;20378;-63
2022/03/19 07:22:45;;;;;;;39.10;27.42;;;;;;;5.15;74.48;98673.94;5094564;28;20374;-63
2022/03/19 07:25:11;;;;;;;43.38;29.05;;;;;;;5.22;74.03;98659.41;5094142;28;20389;-63
2022/03/19 07:27:36;;;;;;;37.47;27.17;;;;;;;5.10;73.37;98657.97;5094773;28;20400;-63
2022/03/19 07:30:02;;;;;;;38.10;28.00;;;;;;;5.62;72.40;98671.19;5076011;28;20463;-63
2022/03/19 07:32:27;;;;;;;43.00;26.90;;;;;;;5.49;72.95;98660.31;5094034;28;20400;-61
2022/03/19 07:34:54;;;;;;;36.90;27.10;;;;;;;5.91;71.62;98658.75;5093988;28;20457;-61
2022/03/19 07:37:19;;;;;;;37.75;27.40;;;;;;;6.09;70.78;98658.72;5075587;28;20416;-61
2022/03/19 07:39:44;;;;;;;38.43;27.23;;;;;;;5.84;70.98;98657.72;5075732;28;20390;-62
2022/03/19 07:42:10;;;;;;;36.50;25.35;;;;;;;5.71;70.05;98658.09;5075699;28;20915;-61
2022/03/19 07:44:35;;;;;;;35.53;25.07;;;;;;;5.49;69.37;98662.91;5093724;28;20796;-61
2022/03/19 07:47:01;;;;;;;35.40;24.80;;;;;;;5.63;68.85;98658.00;5093580;28;20431;-61
2022/03/19 07:49:26;;;;;;;33.43;23.60;;;;;;;5.71;68.00;98658.09;5093998;28;20477;-62
2022/03/19 07:51:55;;;;;;;35.13;24.33;;;;;;;5.94;66.99;98652.44;5075603;28;20380;-61
2022/03/19 07:54:27;;;;;;;34.67;23.70;;;;;;;5.64;66.93;98641.44;5093207;28;20402;-61
2022/03/19 07:56:53;;;;;;;36.00;24.40;;;;;;;5.88;66.27;98658.25;5093184;28;20378;-61
2022/03/19 07:59:19;;;;;;;35.80;24.40;;;;;;;6.07;64.94;98650.28;5093478;28;20374;-61
2022/03/19 08:01:44;;;;;;;33.57;23.07;;;;;;;6.13;64.53;98639.25;5093060;28;20884;-62
2022/03/19 08:04:10;;;;;;;33.60;23.17;;;;;;;6.14;64.99;98644.28;5093634;28;20382;-62
2022/03/19 08:06:36;;;;;;;31.90;23.10;;;;;;;6.43;63.18;98641.38;5093467;28;20381;-62
2022/03/19 08:09:04;;;;;;;31.90;22.23;;;;;;;6.13;62.22;98640.03;5093224;28;20386;-62
2022/03/19 08:11:31;;;;;;;31.88;22.13;;;;;;;6.23;62.40;98647.78;5075082;28;20762;-62
2022/03/19 08:13:56;;;;;;;31.08;22.63;;;;;;;6.19;61.23;98649.03;5092852;28;20719;-62
2022/03/19 08:16:22;;;;;;;32.85;22.58;;;;;;;6.23;60.56;98660.81;5075479;28;20382;-62
2022/03/19 08:18:47;;;;;;;31.03;21.80;;;;;;;6.12;61.41;98654.06;5093312;28;20460;-62
2022/03/19 08:21:13;;;;;;;30.50;21.97;;;;;;;6.33;61.52;98651.09;5093109;28;20374;-61
2022/03/19 08:23:38;;;;;;;27.63;20.73;;;;;;;6.71;60.35;98649.81;5092995;28;20386;-62
2022/03/19 08:26:03;;;;;;;30.03;21.33;;;;;;;6.83;58.70;98643.38;5074230;28;20382;-62
2022/03/19 08:28:29;;;;;;;31.40;21.48;;;;;;;6.83;58.18;98640.75;5092694;28;20366;-63
2022/03/19 08:30:55;;;;;;;30.03;21.20;;;;;;;6.65;58.71;98646.06;5092903;28;20463;-63
2022/03/19 08:33:20;;;;;;;29.73;20.77;;;;;;;6.68;58.56;98642.34;5093015;28;20405;-61
2022/03/19 08:35:45;;;;;;;28.07;20.27;;;;;;;6.62;57.96;98638.56;5093058;28;20498;-62
2022/03/19 08:40:57;;;;;;;29.50;20.50;;;;;;;6.66;57.05;98628.63;5092420;28;20915;-62
2022/03/19 08:43:22;;;;;;;30.30;20.27;;;;;;;6.76;56.55;98625.91;5092597;28;20374;-61
2022/03/19 08:45:48;;;;;;;28.77;19.77;;;;;;;7.14;56.07;98616.72;5092216;28;20370;-62
2022/03/19 08:48:13;;;;;;;27.15;19.45;;;;;;;7.09;55.43;98622.44;5092146;28;20375;-61
2022/03/19 08:50:39;;;;;;;25.50;18.53;;;;;;;6.93;55.37;98617.16;5092152;28;20402;-60
2022/03/19 08:53:05;;;;;;;27.10;19.20;;;;;;;7.09;55.56;98617.22;5092329;28;20454;-60
2022/03/19 08:55:30;;;;;;;27.38;18.52;;;;;;;6.92;55.14;98626.78;5091876;28;20437;-61
2022/03/19 08:57:56;;;;;;;28.63;19.07;;;;;;;7.74;55.59;98631.19;5092418;28;20366;-63
2022/03/19 09:00:21;;;;;;;27.67;18.83;;;;;;;7.24;55.08;98615.63;5074158;28;20382;-61
2022/03/19 09:02:47;;;;;;;25.92;19.05;;;;;;;7.33;54.90;98613.84;5092268;28;20366;-61
2022/03/19 09:05:13;;;;;;;27.10;18.97;;;;;;;7.30;54.83;98604.53;5092459;28;20377;-61
2022/03/19 09:07:38;;;;;;;27.20;19.33;;;;;;;7.64;54.37;98599.19;5092373;28;20366;-61
2022/03/19 09:10:04;;;;;;;25.83;18.23;;;;;;;7.36;55.12;98605.69;5074051;28;20421;-62
2022/03/19 09:12:29;;;;;;;28.48;19.50;;;;;;;7.60;54.30;98604.91;5091293;28;20419;-64
2022/03/19 09:14:55;;;;;;;28.30;19.70;;;;;;;7.57;54.68;98598.22;5073332;28;20385;-62
2022/03/19 09:17:20;;;;;;;28.60;19.43;;;;;;;7.35;54.97;98598.88;5091827;28;20370;-62
2022/03/19 09:19:46;;;;;;;27.35;19.30;;;;;;;7.62;54.46;98598.56;5092128;28;20382;-62
2022/03/19 09:22:11;;;;;;;29.92;19.73;;;;;;;7.37;55.24;98592.50;5091778;28;20366;-62
2022/03/19 09:24:37;;;;;;;31.53;21.57;;;;;;;7.18;56.00;98592.81;5092141;28;20844;-62
2022/03/19 09:27:04;;;;;;;28.20;20.88;;;;;;;7.24;56.20;98588.75;5091970;28;20386;-62
2022/03/19 09:29:29;;;;;;;31.08;20.77;;;;;;;7.37;55.21;98578.63;5091820;28;20405;-61
2022/03/19 09:31:55;;;;;;;30.37;20.53;;;;;;;7.40;56.22;98576.53;5091821;28;20370;-61
2022/03/19 09:34:20;;;;;;;30.40;21.03;;;;;;;7.48;56.02;98576.53;5091739;28;20439;-61
2022/03/19 09:36:46;;;;;;;28.37;20.93;;;;;;;7.65;55.64;98576.53;5091705;28;20382;-61
2022/03/19 09:39:14;;;;;;;28.15;21.40;;;;;;;7.73;55.62;98582.56;5090848;28;20385;-62
2022/03/19 09:41:42;;;;;;;29.35;20.70;;;;;;;7.76;53.89;98573.56;5091611;28;20389;-62
2022/03/19 09:44:08;;;;;;;33.28;20.75;;;;;;;7.78;54.46;98567.22;5091554;28;20709;-62
2022/03/19 09:46:35;;;;;;;30.35;21.00;;;;;;;7.86;54.94;98569.00;5091384;28;20401;-62
2022/03/19 09:49:00;;;;;;;29.90;20.90;;;;;;;7.72;54.13;98554.84;5091805;28;20392;-62
2022/03/19 09:51:27;;;;;;;32.63;21.65;;;;;;;7.85;54.16;98557.75;5091878;28;20489;-62
2022/03/19 09:53:54;;;;;;;27.38;19.70;;;;;;;7.89;53.15;98553.00;5091217;28;20414;-62
2022/03/19 09:56:20;;;;;;;30.77;20.75;;;;;;;7.93;53.49;98549.09;5091183;28;20385;-63
2022/03/19 09:58:45;;;;;;;29.23;20.30;;;;;;;8.07;53.80;98540.59;5091436;28;20366;-62
2022/03/19 10:01:10;;;;;;;28.57;20.93;;;;;;;8.06;53.44;98527.69;5091265;28;20378;-62
2022/03/19 10:03:40;;;;;;;29.73;21.17;;;;;;;7.92;53.41;98519.53;5073688;28;20853;-62
2022/03/19 10:08:58;;;;;;;28.13;21.03;;;;;;;7.92;53.42;98519.53;5091484;28;20408;-62
2022/03/19 10:11:28;;;;;;;29.60;20.83;;;;;;;7.90;53.56;98520.72;5091435;28;20471;-62
2022/03/19 10:13:53;;;;;;;28.15;20.65;;;;;;;8.07;53.30;98514.47;5091716;28;20715;-63
2022/03/19 10:16:24;;;;;;;27.42;20.83;;;;;;;8.05;53.59;98508.59;5091454;28;20480;-62
2022/03/19 10:19:01;;;;;;;26.58;19.95;;;;;;;8.17;53.88;98512.47;5091516;28;20378;-63
2022/03/19 10:21:29;;;;;;;28.10;19.97;;;;;;;8.23;54.03;98498.75;5091256;28;20516;-63
2022/03/19 10:23:59;;;;;;;30.80;21.17;;;;;;;8.27;53.89;98507.84;5091223;28;20404;-62
2022/03/19 10:26:34;;;;;;;29.73;21.90;;;;;;;8.33;54.01;98488.94;5091590;28;20385;-62
2022/03/19 10:29:05;;;;;;;29.17;21.45;;;;;;;8.46;52.92;98490.19;5091485;28;20377;-62
2022/03/19 10:31:46;;;;;;;30.98;21.75;;;;;;;8.64;52.91;98502.00;5091070;28;20402;-63
2022/03/19 10:34:13;;;;;;;31.45;22.05;;;;;;;8.71;52.42;98497.72;5073695;28;20538;-62
2022/03/19 10:36:43;;;;;;;27.70;20.90;;;;;;;8.65;53.19;98484.50;5091738;28;20762;-62
2022/03/19 10:39:18;;;;;;;32.40;21.20;;;;;;;8.69;53.51;98488.44;5092755;28;20200;-63
2022/03/19 10:41:43;;;;;;;;;;;;;;;8.53;53.82;98478.03;5074741;28;20036;-62
2022/03/19 10:44:12;;;;;;;;;;;;;;;8.47;53.47;98476.94;5092652;28;19915;-62
2022/03/19 10:46:38;;;;;;;32.67;21.23;;;;;;;8.41;54.67;98463.75;5074259;28;20183;-63
2022/03/19 10:49:11;;;;;;;31.00;21.07;;;;;;;8.42;54.36;98465.34;5092438;28;20180;-62
2022/03/19 10:51:38;;;;;;;35.33;23.63;;;;;;;8.69;54.36;98467.53;5076654;28;20485;-61
2022/03/19 10:54:04;;;;;;;32.83;22.80;;;;;;;8.90;54.46;98454.63;5094442;28;20507;-62
2022/03/19 10:56:29;;;;;;;32.58;23.88;;;;;;;8.72;54.65;98448.88;5084455;28;20375;-62
2022/03/19 10:58:55;;;;;;;30.53;20.77;;;;;;;8.56;55.60;98443.75;5075837;28;20247;-61
2022/03/19 11:01:21;;;;;;;32.47;23.80;;;;;;;8.64;55.95;98441.88;5054916;28;20388;-65
2022/03/19 11:03:50;;;;;;;33.93;21.27;;;;;;;8.60;55.96;98440.59;5075419;28;20199;-62
2022/03/19 11:06:19;;;;;;;36.20;22.50;;;;;;;8.66;55.35;98436.47;5075179;28;20182;-62
2022/03/19 11:08:46;;;;;;;31.20;21.23;;;;;;;8.87;55.41;98425.38;5075189;28;20170;-62
2022/03/19 11:11:18;;;;;;;32.97;21.23;;;;;;;9.08;54.80;98420.34;5075180;28;20566;-62
2022/03/19 11:13:52;;;;;;;37.07;20.33;;;;;;;9.34;54.18;98412.06;5075348;28;20215;-63
2022/03/19 11:16:21;;;;;;;26.13;18.77;;;;;;;9.44;54.03;98407.38;5075310;28;20165;-62
2022/03/19 11:18:52;;;;;;;30.07;20.13;;;;;;;9.51;52.63;98408.31;5075308;28;20201;-62
2022/03/19 11:21:19;;;;;;;27.23;17.43;;;;;;;9.29;51.54;98394.28;5057036;28;20187;-62
2022/03/19 11:23:57;;;;;;;25.83;16.47;;;;;;;9.35;51.97;98385.72;5057142;28;20193;-62
2022/03/19 11:26:27;;;;;;;28.27;16.63;;;;;;;9.30;50.51;98390.69;5083018;28;20180;-62
2022/03/19 11:28:53;;;;;;;24.97;13.43;;;;;;;9.36;49.21;98387.34;5095352;28;20185;-62
2022/03/19 11:31:24;;;;;;;;;;;;;;;9.09;47.99;98385.31;5095858;28;20472;-62
2022/03/19 11:33:50;;;;;;;17.53;11.53;;;;;;;9.28;48.00;98376.97;5095990;28;20182;-61
2022/03/19 11:36:15;;;;;;;20.43;13.93;;;;;;;9.51;47.98;98362.00;5094159;28;20378;-61
2022/03/19 11:38:52;;;;;;;17.50;11.70;;;;;;;9.50;45.06;98352.53;5094114;28;20385;-61
2022/03/19 11:41:25;;;;;;;17.75;12.52;;;;;;;9.89;45.09;98367.94;5084161;28;20381;-62
2022/03/19 11:44:28;;;;;;;17.90;13.20;;;;;;;9.80;44.63;98373.47;5073739;28;20458;-62